Time;durP1;ratioP1;P1;durP2;ratioP2;P2;SDS_P1;SDS_P2;PMS_P1;PMS_P2;Temp;Humidity;BMP_temperature;BMP_pressure;BME280_temperature;BME280_humidity;BME280_pressure;Samples;Min_cycle;Max_cycle;Signal;HPM_P1;HPM_P2
2021/04/19 00:00:59;;;;;;;16.08;9.60;;;;;;;;;;5116516;28;20035;-83
2021/04/19 00:03:25;;;;;;;19.40;10.40;;;;;;;;;;5116392;28;20032;-83
2021/04/19 00:05:51;;;;;;;18.50;10.00;;;;;;;;;;5115127;28;20040;-83
2021/04/19 00:08:17;;;;;;;22.83;10.95;;;;;;;;;;5116440;27;20084;-83
2021/04/19 00:10:43;;;;;;;21.73;10.15;;;;;;;;;;5116352;28;20500;-84
2021/04/19 00:13:09;;;;;;;17.23;10.00;;;;;;;;;;5098290;28;20158;-83
2021/04/19 00:15:35;;;;;;;20.02;9.98;;;;;;;;;;5115123;28;20032;-83
2021/04/19 00:18:01;;;;;;;16.45;10.00;;;;;;;;;;5115001;28;20035;-83
2021/04/19 00:20:27;;;;;;;20.00;10.02;;;;;;;;;;5116249;28;20031;-83
2021/04/19 00:22:53;;;;;;;18.45;10.43;;;;;;;;;;5114850;28;20058;-83
2021/04/19 00:25:19;;;;;;;15.68;8.90;;;;;;;;;;5097958;28;20410;-84
2021/04/19 00:27:45;;;;;;;20.05;11.25;;;;;;;;;;5115978;28;20371;-82
2021/04/19 00:30:11;;;;;;;23.98;12.02;;;;;;;;;;5097898;28;20032;-82
2021/04/19 00:32:37;;;;;;;21.02;11.00;;;;;;;;;;5115761;28;20039;-82
2021/04/19 00:35:05;;;;;;;22.77;11.15;;;;;;;;;;5115736;28;20048;-83
2021/04/19 00:37:31;;;;;;;17.77;10.23;;;;;;;;;;5114580;28;20195;-82
2021/04/19 00:39:57;;;;;;;19.70;10.38;;;;;;;;;;5114642;28;20058;-83
2021/04/19 00:42:23;;;;;;;20.50;10.20;;;;;;;;;;5115757;28;20549;-83
2021/04/19 00:44:49;;;;;;;21.05;10.30;;;;;;;;;;5114404;28;20463;-83
2021/04/19 00:47:16;;;;;;;20.60;11.38;;;;;;;;;;5115548;28;20043;-83
2021/04/19 00:49:42;;;;;;;18.80;9.90;;;;;;;;;;5114367;28;20035;-83
2021/04/19 00:52:09;;;;;;;15.65;9.40;;;;;;;;;;5114298;28;20039;-82
2021/04/19 00:54:35;;;;;;;21.33;11.82;;;;;;;;;;5114357;28;20074;-82
2021/04/19 00:57:01;;;;;;;19.98;10.52;;;;;;;;;;5114272;28;20043;-83
2021/04/19 00:59:27;;;;;;;16.70;10.45;;;;;;;;;;5114134;28;20047;-82
2021/04/19 01:01:53;;;;;;;19.98;10.05;;;;;;;;;;5114214;28;20122;-83
2021/04/19 01:04:19;;;;;;;18.60;10.27;;;;;;;;;;5080424;28;20465;-83
2021/04/19 01:06:45;;;;;;;17.15;9.60;;;;;;;;;;5114792;28;20059;-83
2021/04/19 01:09:11;;;;;;;19.98;11.07;;;;;;;;;;5114153;28;20147;-83
2021/04/19 01:11:37;;;;;;;22.83;11.07;;;;;;;;;;5115351;28;20119;-83
2021/04/19 01:14:03;;;;;;;22.15;10.88;;;;;;;;;;5113887;28;20168;-82
2021/04/19 01:16:29;;;;;;;21.35;11.20;;;;;;;;;;5113871;28;20055;-82
2021/04/19 01:18:55;;;;;;;18.08;10.68;;;;;;;;;;5113889;28;20036;-83
2021/04/19 01:21:21;;;;;;;22.60;11.80;;;;;;;;;;5113816;28;20035;-83
2021/04/19 01:23:47;;;;;;;20.42;10.60;;;;;;;;;;5114894;28;20036;-83
2021/04/19 01:26:13;;;;;;;21.55;11.90;;;;;;;;;;5114883;28;20105;-82
2021/04/19 01:28:39;;;;;;;20.20;10.63;;;;;;;;;;5113514;28;20479;-83
2021/04/19 01:31:05;;;;;;;25.10;12.55;;;;;;;;;;5114939;28;20047;-82
2021/04/19 01:33:32;;;;;;;22.60;12.02;;;;;;;;;;5113534;28;20062;-83
2021/04/19 01:35:58;;;;;;;20.35;12.30;;;;;;;;;;5114437;28;20047;-83
2021/04/19 01:38:24;;;;;;;22.05;13.18;;;;;;;;;;5096596;28;20039;-83
2021/04/19 01:40:53;;;;;;;25.77;13.38;;;;;;;;;;5113394;28;20042;-83
2021/04/19 01:43:20;;;;;;;23.80;13.23;;;;;;;;;;5096638;28;20461;-83
2021/04/19 01:45:46;;;;;;;23.30;13.23;;;;;;;;;;5113357;28;20122;-83
2021/04/19 01:48:12;;;;;;;23.20;12.50;;;;;;;;;;5113192;28;20065;-83
2021/04/19 01:50:38;;;;;;;27.40;14.50;;;;;;;;;;5114466;28;20035;-83
2021/04/19 01:53:04;;;;;;;24.60;12.25;;;;;;;;;;5113308;28;20035;-83
2021/04/19 01:55:31;;;;;;;24.70;14.27;;;;;;;;;;5113049;28;20110;-83
2021/04/19 01:58:00;;;;;;;22.30;12.23;;;;;;;;;;5112878;28;20501;-82
2021/04/19 02:00:27;;;;;;;28.15;14.63;;;;;;;;;;5114203;28;20035;-83
2021/04/19 02:03:00;;;;;;;23.13;13.27;;;;;;;;;;5113015;28;20047;-83
2021/04/19 02:05:33;;;;;;;27.85;13.30;;;;;;;;;;5113061;28;20047;-82
2021/04/19 02:08:10;;;;;;;27.50;13.80;;;;;;;;;;5114054;28;20046;-82
2021/04/19 02:10:47;;;;;;;24.60;12.82;;;;;;;;;;5112944;28;20059;-82
2021/04/19 02:13:32;;;;;;;27.42;14.32;;;;;;;;;;5112769;28;20452;-83
2021/04/19 02:16:10;;;;;;;23.98;13.45;;;;;;;;;;5113872;27;20039;-82
2021/04/19 02:18:36;;;;;;;27.27;14.10;;;;;;;;;;5111859;28;20040;-83
2021/04/19 02:21:05;;;;;;;24.35;14.00;;;;;;;;;;5113855;28;20732;-82
2021/04/19 02:23:32;;;;;;;28.30;15.02;;;;;;;;;;5112495;28;20054;-82
2021/04/19 02:25:59;;;;;;;25.70;14.32;;;;;;;;;;5112490;28;20035;-82
2021/04/19 02:28:29;;;;;;;28.98;14.10;;;;;;;;;;5112521;28;20066;-83
2021/04/19 02:30:57;;;;;;;29.00;13.90;;;;;;;;;;5112678;28;20127;-82
2021/04/19 02:33:23;;;;;;;25.75;14.20;;;;;;;;;;5112276;28;20486;-82
2021/04/19 02:35:49;;;;;;;25.42;13.48;;;;;;;;;;5112028;28;20491;-82
2021/04/19 02:38:19;;;;;;;29.00;13.85;;;;;;;;;;5112270;28;20065;-82
2021/04/19 02:40:45;;;;;;;26.30;13.40;;;;;;;;;;5112243;28;20059;-82
2021/04/19 02:43:11;;;;;;;23.20;12.73;;;;;;;;;;5112194;28;20039;-82
2021/04/19 02:45:38;;;;;;;23.15;13.70;;;;;;;;;;5112255;28;20161;-82
2021/04/19 02:48:04;;;;;;;25.20;13.70;;;;;;;;;;5111952;28;20580;-82
2021/04/19 02:50:31;;;;;;;26.70;13.90;;;;;;;;;;5112116;28;20040;-83
2021/04/19 02:52:57;;;;;;;24.30;11.98;;;;;;;;;;5113311;28;20093;-89
2021/04/19 02:55:24;;;;;;;23.77;12.25;;;;;;;;;;5095166;28;20039;-83
2021/04/19 02:57:51;;;;;;;21.98;12.57;;;;;;;;;;5095030;28;20126;-83
2021/04/19 03:00:17;;;;;;;24.77;12.88;;;;;;;;;;5095098;28;20078;-82
2021/04/19 03:02:45;;;;;;;21.67;11.18;;;;;;;;;;5095336;28;20036;-82
2021/04/19 03:05:12;;;;;;;24.33;12.10;;;;;;;;;;5095117;28;20042;-82
2021/04/19 03:07:39;;;;;;;20.67;10.88;;;;;;;;;;5111931;28;20085;-82
2021/04/19 03:10:09;;;;;;;21.25;12.38;;;;;;;;;;5111706;28;20040;-82
2021/04/19 03:12:35;;;;;;;23.75;12.65;;;;;;;;;;5111779;28;20424;-82
2021/04/19 03:15:02;;;;;;;20.73;12.77;;;;;;;;;;5111445;28;20538;-82
2021/04/19 03:17:28;;;;;;;23.55;13.68;;;;;;;;;;5094819;28;20039;-82
2021/04/19 03:19:57;;;;;;;18.45;11.48;;;;;;;;;;5111624;28;20121;-82
2021/04/19 03:22:23;;;;;;;18.17;9.95;;;;;;;;;;5111648;28;20036;-82
2021/04/19 03:24:49;;;;;;;21.50;11.60;;;;;;;;;;5111517;28;20036;-81
2021/04/19 03:27:15;;;;;;;21.45;11.93;;;;;;;;;;5111467;28;20036;-82
2021/04/19 03:29:41;;;;;;;24.58;13.25;;;;;;;;;;5111412;28;20136;-82
2021/04/19 03:32:09;;;;;;;22.05;12.32;;;;;;;;;;5111545;28;20202;-82
2021/04/19 03:34:36;;;;;;;24.58;12.48;;;;;;;;;;5111141;28;20048;-82
2021/04/19 03:37:13;;;;;;;19.75;11.20;;;;;;;;;;5111386;28;20433;-82
2021/04/19 03:39:39;;;;;;;19.27;9.77;;;;;;;;;;5112726;28;20039;-82
2021/04/19 03:42:05;;;;;;;19.50;11.43;;;;;;;;;;5111306;28;20038;-82
2021/04/19 03:44:33;;;;;;;21.10;11.43;;;;;;;;;;5111326;28;20471;-82
2021/04/19 03:46:59;;;;;;;19.20;11.73;;;;;;;;;;5111259;28;20123;-82
2021/04/19 03:49:35;;;;;;;22.33;11.65;;;;;;;;;;5111291;28;20036;-82
2021/04/19 03:52:04;;;;;;;21.90;11.25;;;;;;;;;;5111402;28;20311;-82
2021/04/19 03:54:34;;;;;;;24.23;12.98;;;;;;;;;;5094324;28;20439;-82
2021/04/19 03:57:01;;;;;;;21.10;11.30;;;;;;;;;;5094366;28;20478;-82
2021/04/19 03:59:27;;;;;;;22.50;11.80;;;;;;;;;;5094337;28;20031;-82
2021/04/19 04:01:54;;;;;;;19.70;11.45;;;;;;;;;;5111197;28;20036;-81
2021/04/19 04:04:20;;;;;;;22.27;11.55;;;;;;;;;;5111356;28;20068;-82
2021/04/19 04:06:46;;;;;;;19.98;11.18;;;;;;;;;;5111399;28;20039;-81
2021/04/19 04:09:13;;;;;;;22.30;11.60;;;;;;;;;;5094343;28;20467;-82
2021/04/19 04:11:39;;;;;;;19.83;11.27;;;;;;;;;;5094297;28;20031;-82
2021/04/19 04:14:05;;;;;;;22.23;12.65;;;;;;;;;;5094240;28;20501;-82
2021/04/19 04:16:31;;;;;;;21.85;11.80;;;;;;;;;;5094038;28;20054;-82
2021/04/19 04:18:58;;;;;;;24.92;12.75;;;;;;;;;;5112249;28;20028;-82
2021/04/19 04:21:24;;;;;;;18.20;11.25;;;;;;;;;;5094250;28;20429;-82
2021/04/19 04:23:50;;;;;;;24.67;13.75;;;;;;;;;;5110970;28;20047;-82
2021/04/19 04:26:16;;;;;;;24.17;12.65;;;;;;;;;;5112066;28;20478;-81
2021/04/19 04:28:44;;;;;;;25.08;13.32;;;;;;;;;;5111097;28;20070;-82
2021/04/19 04:31:10;;;;;;;26.27;12.77;;;;;;;;;;5110977;28;20032;-82
2021/04/19 04:33:36;;;;;;;21.10;11.98;;;;;;;;;;5112107;28;20124;-83
2021/04/19 04:36:02;;;;;;;22.45;12.48;;;;;;;;;;5110582;28;20058;-83
2021/04/19 04:38:28;;;;;;;21.88;12.05;;;;;;;;;;5093914;28;20050;-83
2021/04/19 04:40:54;;;;;;;23.98;12.10;;;;;;;;;;5110830;28;20036;-83
2021/04/19 04:43:21;;;;;;;22.60;12.50;;;;;;;;;;5114942;28;20115;-83
2021/04/19 04:45:48;;;;;;;24.80;12.80;;;;;;;;;;5115746;28;20047;-83
2021/04/19 04:48:20;;;;;;;21.65;11.10;;;;;;;;;;5114660;28;20102;-83
2021/04/19 04:50:46;;;;;;;;;;;;;;;;;;5114796;28;20110;-83
2021/04/19 04:53:15;;;;;;;22.45;12.32;;;;;;;;;;5115675;28;19920;-83
2021/04/19 04:55:41;;;;;;;21.02;10.98;;;;;;;;;;5115433;28;20035;-82
2021/04/19 04:58:07;;;;;;;24.00;11.98;;;;;;;;;;5114220;28;20039;-83
2021/04/19 05:00:33;;;;;;;21.35;11.52;;;;;;;;;;5114234;28;20071;-82
2021/04/19 05:02:59;;;;;;;22.77;11.90;;;;;;;;;;5097212;28;20036;-82
2021/04/19 05:05:25;;;;;;;24.45;11.90;;;;;;;;;;5114002;28;20398;-82
2021/04/19 05:07:51;;;;;;;19.65;11.43;;;;;;;;;;5114000;28;20046;-83
2021/04/19 05:10:17;;;;;;;20.88;11.00;;;;;;;;;;5114032;28;20100;-83
2021/04/19 05:12:43;;;;;;;20.02;11.23;;;;;;;;;;5114140;28;20478;-83
2021/04/19 05:15:12;;;;;;;18.30;10.35;;;;;;;;;;5115120;28;20479;-83
2021/04/19 05:17:38;;;;;;;24.67;11.30;;;;;;;;;;5097246;28;20047;-83
2021/04/19 05:20:05;;;;;;;19.33;10.93;;;;;;;;;;5113747;28;20104;-83
2021/04/19 05:22:31;;;;;;;18.20;10.73;;;;;;;;;;5096818;28;20036;-83
2021/04/19 05:24:57;;;;;;;18.27;10.45;;;;;;;;;;5113688;28;20050;-84
2021/04/19 05:27:23;;;;;;;21.48;10.48;;;;;;;;;;5113750;28;20039;-83
2021/04/19 05:29:49;;;;;;;18.35;9.90;;;;;;;;;;5113654;28;20393;-82
2021/04/19 05:32:17;;;;;;;17.42;10.38;;;;;;;;;;5113630;28;20038;-82
2021/04/19 05:34:43;;;;;;;19.52;9.50;;;;;;;;;;5096849;28;20055;-82
2021/04/19 05:37:09;;;;;;;18.77;9.90;;;;;;;;;;5113457;28;20432;-83
2021/04/19 05:39:35;;;;;;;16.42;9.50;;;;;;;;;;5113452;28;20061;-84
2021/04/19 05:42:02;;;;;;;20.63;10.23;;;;;;;;;;5096548;28;20040;-83
2021/04/19 05:44:28;;;;;;;16.77;9.65;;;;;;;;;;5096406;28;20040;-83
2021/04/19 05:46:54;;;;;;;18.50;10.25;;;;;;;;;;5114399;28;20054;-83
2021/04/19 05:49:20;;;;;;;17.35;10.35;;;;;;;;;;5113317;28;20038;-82
2021/04/19 05:51:46;;;;;;;20.20;10.38;;;;;;;;;;5113447;28;20084;-84
2021/04/19 05:54:14;;;;;;;19.10;10.30;;;;;;;;;;5114573;28;20055;-87
2021/04/19 05:56:49;;;;;;;15.52;9.57;;;;;;;;;;5113096;28;20042;-83
2021/04/19 05:59:21;;;;;;;18.27;10.02;;;;;;;;;;5113214;28;20039;-84
2021/04/19 06:01:48;;;;;;;18.27;10.10;;;;;;;;;;5113057;28;20607;-86
2021/04/19 06:04:17;;;;;;;19.35;9.60;;;;;;;;;;5096030;28;20041;-86
2021/04/19 06:07:01;;;;;;;19.98;8.93;;;;;;;;;;5114031;28;20036;-86
2021/04/19 06:09:41;;;;;;;17.63;9.45;;;;;;;;;;5114034;28;20067;-86
2021/04/19 06:12:09;;;;;;;19.88;10.35;;;;;;;;;;5112744;28;20032;-86
2021/04/19 06:14:43;;;;;;;18.05;9.93;;;;;;;;;;5112698;28;20111;-84
2021/04/19 06:17:09;;;;;;;13.93;8.70;;;;;;;;;;5113942;28;20035;-85
2021/04/19 06:19:36;;;;;;;17.77;9.13;;;;;;;;;;5113931;28;20229;-86
2021/04/19 06:22:02;;;;;;;19.52;9.73;;;;;;;;;;5112738;28;20071;-86
2021/04/19 06:24:28;;;;;;;16.02;9.32;;;;;;;;;;5112548;28;20077;-85
2021/04/19 06:26:54;;;;;;;19.40;9.95;;;;;;;;;;5112574;28;20044;-86
2021/04/19 06:29:26;;;;;;;15.02;9.00;;;;;;;;;;5112706;28;20032;-88
2021/04/19 06:31:52;;;;;;;18.02;8.68;;;;;;;;;;5095582;28;20038;-86
2021/04/19 06:34:19;;;;;;;17.65;9.30;;;;;;;;;;5113500;28;20044;-90
2021/04/19 06:36:45;;;;;;;15.35;9.73;;;;;;;;;;5078892;28;20050;-87
2021/04/19 06:39:13;;;;;;;16.83;9.20;;;;;;;;;;5112289;28;20211;-88
2021/04/19 06:41:39;;;;;;;16.60;9.32;;;;;;;;;;5095664;28;20092;-90
2021/04/19 06:44:05;;;;;;;14.30;9.20;;;;;;;;;;5078916;28;20052;-85
2021/04/19 06:46:32;;;;;;;17.27;9.77;;;;;;;;;;5095217;28;20074;-88
2021/04/19 06:48:58;;;;;;;22.25;10.52;;;;;;;;;;5112259;28;20043;-85
2021/04/19 06:51:24;;;;;;;19.95;10.85;;;;;;;;;;5112159;28;20035;-86
2021/04/19 06:53:51;;;;;;;18.98;9.35;;;;;;;;;;5112147;28;20036;-86
2021/04/19 06:56:23;;;;;;;15.50;9.80;;;;;;;;;;5113200;28;20444;-86
2021/04/19 06:58:51;;;;;;;17.42;9.10;;;;;;;;;;5112144;28;20138;-86
2021/04/19 07:01:19;;;;;;;15.10;9.32;;;;;;;;;;5095013;28;20105;-86
2021/04/19 07:03:45;;;;;;;18.05;10.15;;;;;;;;;;5113193;28;20073;-87
2021/04/19 07:06:11;;;;;;;19.67;10.10;;;;;;;;;;5094521;28;20039;-87
2021/04/19 07:08:44;;;;;;;16.13;9.18;;;;;;;;;;5111818;28;20039;-86
2021/04/19 07:11:10;;;;;;;17.50;8.90;;;;;;;;;;5111716;28;20039;-85
2021/04/19 07:13:37;;;;;;;15.95;10.50;;;;;;;;;;5094814;28;20081;-84
2021/04/19 07:16:03;;;;;;;15.90;10.30;;;;;;;;;;5094629;28;20078;-84
2021/04/19 07:18:29;;;;;;;13.77;9.13;;;;;;;;;;5078165;28;20059;-85
2021/04/19 07:20:55;;;;;;;14.70;9.57;;;;;;;;;;5111587;28;20039;-85
2021/04/19 07:23:21;;;;;;;19.45;10.98;;;;;;;;;;5111651;28;20063;-84
2021/04/19 07:25:47;;;;;;;16.13;9.23;;;;;;;;;;5094657;28;20039;-83
2021/04/19 07:28:14;;;;;;;14.75;8.82;;;;;;;;;;5111551;28;20035;-83
2021/04/19 07:30:40;;;;;;;20.23;11.35;;;;;;;;;;5112602;28;20069;-83
2021/04/19 07:33:06;;;;;;;20.98;10.85;;;;;;;;;;5113588;28;20036;-83
2021/04/19 07:35:33;;;;;;;19.45;11.63;;;;;;;;;;5129689;27;20050;-83
2021/04/19 07:38:03;;;;;;;16.42;11.05;;;;;;;;;;5128740;28;20035;-84
2021/04/19 07:40:30;;;;;;;19.27;11.13;;;;;;;;;;5112552;28;20111;-83
2021/04/19 07:43:08;;;;;;;19.02;11.77;;;;;;;;;;5130803;28;20199;-84
2021/04/19 07:45:34;;;;;;;19.63;11.85;;;;;;;;;;5130454;28;20140;-84
2021/04/19 07:48:00;;;;;;;18.08;10.95;;;;;;;;;;5132231;27;20074;-84
2021/04/19 07:50:27;;;;;;;19.90;12.52;;;;;;;;;;5132966;27;20041;-84
2021/04/19 07:53:08;;;;;;;18.73;12.02;;;;;;;;;;5131827;28;20042;-82
2021/04/19 07:55:42;;;;;;;23.65;13.02;;;;;;;;;;5131562;28;20036;-83
2021/04/19 07:58:21;;;;;;;16.52;10.10;;;;;;;;;;5131488;28;20074;-82
2021/04/19 08:00:47;;;;;;;18.77;11.35;;;;;;;;;;5114819;28;20043;-81
2021/04/19 08:03:15;;;;;;;18.92;11.95;;;;;;;;;;5131711;28;20118;-83
2021/04/19 08:05:51;;;;;;;22.13;13.48;;;;;;;;;;5132813;27;20050;-85
2021/04/19 08:08:18;;;;;;;21.33;13.85;;;;;;;;;;5132874;27;20427;-82
2021/04/19 08:10:45;;;;;;;20.77;13.75;;;;;;;;;;5132426;27;20035;-83
2021/04/19 08:13:12;;;;;;;20.92;14.48;;;;;;;;;;5132550;27;20063;-83
2021/04/19 08:15:38;;;;;;;20.30;13.27;;;;;;;;;;5131411;28;20062;-81
2021/04/19 08:18:06;;;;;;;21.00;13.18;;;;;;;;;;5134088;27;20074;-82
2021/04/19 08:20:32;;;;;;;19.02;12.63;;;;;;;;;;5118297;27;20039;-83
2021/04/19 08:23:13;;;;;;;19.45;12.95;;;;;;;;;;5118342;27;20031;-83
2021/04/19 08:25:44;;;;;;;21.45;13.70;;;;;;;;;;5118320;27;20039;-83
2021/04/19 08:28:15;;;;;;;19.25;12.65;;;;;;;;;;5136484;27;20035;-83
2021/04/19 08:30:42;;;;;;;22.40;13.07;;;;;;;;;;5136565;27;20435;-83
2021/04/19 08:33:09;;;;;;;19.58;13.20;;;;;;;;;;5135296;27;20090;-83
2021/04/19 08:35:35;;;;;;;19.85;12.98;;;;;;;;;;5134982;27;20059;-83
2021/04/19 08:38:02;;;;;;;20.38;13.48;;;;;;;;;;5117981;27;20401;-83
2021/04/19 08:40:28;;;;;;;21.25;13.98;;;;;;;;;;5135187;27;20039;-83
2021/04/19 08:42:54;;;;;;;21.45;15.23;;;;;;;;;;5117863;27;20035;-83
2021/04/19 08:45:20;;;;;;;23.63;15.43;;;;;;;;;;5135016;27;20039;-83
2021/04/19 08:47:47;;;;;;;21.50;15.55;;;;;;;;;;5134954;27;20087;-83
2021/04/19 08:50:17;;;;;;;24.55;16.35;;;;;;;;;;5117804;27;20779;-82
2021/04/19 08:52:43;;;;;;;23.23;16.13;;;;;;;;;;5134996;27;20111;-83
2021/04/19 08:55:10;;;;;;;23.05;16.83;;;;;;;;;;5117773;27;20492;-83
2021/04/19 08:57:38;;;;;;;24.95;18.10;;;;;;;;;;5134760;27;20042;-85
2021/04/19 09:00:05;;;;;;;25.20;18.05;;;;;;;;;;5136037;27;20440;-83
2021/04/19 09:02:31;;;;;;;27.42;17.48;;;;;;;;;;5134800;27;20371;-84
2021/04/19 09:05:13;;;;;;;22.77;17.25;;;;;;;;;;5134738;27;20049;-85
2021/04/19 09:07:40;;;;;;;26.45;17.45;;;;;;;;;;5135804;27;20488;-85
2021/04/19 09:10:07;;;;;;;21.70;16.70;;;;;;;;;;5134598;27;20074;-85
2021/04/19 09:12:33;;;;;;;26.08;16.48;;;;;;;;;;5134691;27;20043;-85
2021/04/19 09:15:08;;;;;;;22.70;14.85;;;;;;;;;;5134546;27;20050;-85
2021/04/19 09:17:34;;;;;;;23.52;15.05;;;;;;;;;;5135490;27;20585;-85
2021/04/19 09:20:00;;;;;;;20.42;15.10;;;;;;;;;;5134568;27;20058;-84
2021/04/19 09:22:27;;;;;;;17.70;13.27;;;;;;;;;;5134638;27;20031;-85
2021/04/19 09:25:07;;;;;;;21.60;14.10;;;;;;;;;;5134353;27;20043;-85
2021/04/19 09:27:49;;;;;;;23.40;14.10;;;;;;;;;;5135102;27;20035;-84
2021/04/19 09:30:27;;;;;;;22.38;14.02;;;;;;;;;;5135474;27;20046;-84
2021/04/19 09:33:03;;;;;;;22.25;14.27;;;;;;;;;;5135390;27;20096;-84
2021/04/19 09:35:45;;;;;;;21.92;13.75;;;;;;;;;;5135204;27;20134;-84
2021/04/19 09:38:11;;;;;;;21.97;14.90;;;;;;;;;;5133968;27;20035;-84
2021/04/19 09:40:45;;;;;;;25.23;15.88;;;;;;;;;;5133942;27;20043;-84
2021/04/19 09:43:11;;;;;;;25.35;14.90;;;;;;;;;;5134093;27;20084;-84
2021/04/19 09:45:47;;;;;;;21.75;14.48;;;;;;;;;;5133988;27;20039;-84
2021/04/19 09:48:34;;;;;;;23.02;14.05;;;;;;;;;;5135489;27;20474;-84
2021/04/19 09:51:14;;;;;;;20.95;13.25;;;;;;;;;;5134003;27;20119;-84
2021/04/19 09:53:40;;;;;;;25.35;13.95;;;;;;;;;;5133838;27;20440;-84
2021/04/19 09:56:07;;;;;;;26.45;13.98;;;;;;;;;;5133553;27;20081;-84
2021/04/19 09:58:33;;;;;;;24.38;14.40;;;;;;;;;;5133719;27;20431;-84
2021/04/19 10:01:00;;;;;;;23.15;14.73;;;;;;;;;;5133763;27;20432;-85
2021/04/19 10:03:27;;;;;;;21.50;13.90;;;;;;;;;;5133566;27;20039;-84
2021/04/19 10:05:54;;;;;;;21.63;14.05;;;;;;;;;;5133421;27;20056;-84
2021/04/19 10:08:20;;;;;;;17.77;12.45;;;;;;;;;;5133483;27;20531;-84
2021/04/19 10:10:53;;;;;;;22.10;14.20;;;;;;;;;;5116427;27;20034;-84
2021/04/19 10:13:26;;;;;;;24.83;13.32;;;;;;;;;;5116250;27;20486;-84
2021/04/19 10:16:00;;;;;;;24.25;13.35;;;;;;;;;;5132973;27;20031;-84
2021/04/19 10:18:33;;;;;;;20.15;12.13;;;;;;;;;;5133297;27;20126;-84
2021/04/19 10:20:59;;;;;;;22.10;12.77;;;;;;;;;;5116343;27;20109;-84
2021/04/19 10:23:31;;;;;;;23.20;13.70;;;;;;;;;;5115897;27;20478;-84
2021/04/19 10:25:57;;;;;;;20.90;12.43;;;;;;;;;;5115972;27;20127;-84
2021/04/19 10:28:32;;;;;;;24.05;13.68;;;;;;;;;;5115906;27;20039;-84
2021/04/19 10:31:14;;;;;;;24.45;13.32;;;;;;;;;;5134224;27;20087;-84
2021/04/19 10:33:43;;;;;;;17.60;12.02;;;;;;;;;;5134118;27;20035;-84
2021/04/19 10:36:10;;;;;;;22.35;13.32;;;;;;;;;;5133812;27;20196;-84
2021/04/19 10:38:36;;;;;;;22.50;13.55;;;;;;;;;;5132750;27;20045;-84
2021/04/19 10:41:03;;;;;;;22.80;14.13;;;;;;;;;;5132172;27;20091;-84
2021/04/19 10:43:29;;;;;;;23.48;14.02;;;;;;;;;;5132776;27;20091;-84
2021/04/19 10:45:55;;;;;;;20.65;13.25;;;;;;;;;;5115580;27;20035;-84
2021/04/19 10:48:21;;;;;;;21.17;13.88;;;;;;;;;;5115580;27;20043;-84
2021/04/19 10:50:48;;;;;;;22.90;13.45;;;;;;;;;;5132525;27;20491;-84
2021/04/19 10:53:30;;;;;;;25.15;14.18;;;;;;;;;;5132506;27;20104;-84
2021/04/19 10:55:59;;;;;;;22.85;14.23;;;;;;;;;;5132351;27;20042;-84
2021/04/19 10:58:26;;;;;;;23.17;14.45;;;;;;;;;;5132466;27;20046;-84
2021/04/19 11:00:52;;;;;;;22.58;13.93;;;;;;;;;;5132412;27;20041;-84
2021/04/19 11:03:19;;;;;;;20.73;13.25;;;;;;;;;;5133711;27;20050;-84
2021/04/19 11:05:45;;;;;;;21.80;13.93;;;;;;;;;;5132278;27;20432;-84
2021/04/19 11:08:11;;;;;;;23.40;13.48;;;;;;;;;;5132289;27;20110;-84
2021/04/19 11:10:37;;;;;;;20.98;13.05;;;;;;;;;;5132461;27;20158;-84
2021/04/19 11:13:03;;;;;;;23.35;14.13;;;;;;;;;;5115469;27;20090;-84
2021/04/19 11:15:29;;;;;;;23.30;14.13;;;;;;;;;;5133422;27;20474;-84
2021/04/19 11:17:55;;;;;;;22.80;13.95;;;;;;;;;;5133373;27;20187;-84
2021/04/19 11:20:25;;;;;;;20.67;13.65;;;;;;;;;;5133332;27;20057;-84
2021/04/19 11:22:51;;;;;;;21.48;13.52;;;;;;;;;;5115202;27;20043;-84
2021/04/19 11:25:17;;;;;;;20.08;13.27;;;;;;;;;;5132219;27;20118;-84
2021/04/19 11:27:43;;;;;;;19.95;13.18;;;;;;;;;;5132055;27;20097;-84
2021/04/19 11:30:24;;;;;;;19.23;12.73;;;;;;;;;;5132108;27;20062;-84
2021/04/19 11:33:03;;;;;;;20.98;13.02;;;;;;;;;;5132038;27;20035;-85
2021/04/19 11:35:34;;;;;;;20.08;13.02;;;;;;;;;;5131735;27;20130;-85
2021/04/19 11:38:00;;;;;;;17.20;11.40;;;;;;;;;;5115106;28;20500;-84
2021/04/19 11:40:30;;;;;;;20.60;13.63;;;;;;;;;;5114916;28;20347;-85
2021/04/19 11:42:57;;;;;;;19.73;13.35;;;;;;;;;;5114890;28;20118;-84
2021/04/19 11:45:23;;;;;;;18.92;13.35;;;;;;;;;;5114864;28;20497;-84
2021/04/19 11:47:50;;;;;;;20.73;13.35;;;;;;;;;;5131836;28;20045;-84
2021/04/19 11:50:16;;;;;;;19.83;13.27;;;;;;;;;;5131961;28;20039;-85
2021/04/19 11:52:48;;;;;;;19.70;13.18;;;;;;;;;;5135811;27;20462;-84
2021/04/19 11:55:14;;;;;;;;;;;;;;;;;;5136296;27;20509;-84
2021/04/19 11:57:41;;;;;;;20.63;11.82;;;;;;;;;;5137097;27;19915;-84
2021/04/19 12:00:09;;;;;;;19.52;12.82;;;;;;;;;;5137291;27;20066;-84
2021/04/19 12:02:36;;;;;;;17.40;12.23;;;;;;;;;;5118932;27;20043;-84
2021/04/19 12:05:04;;;;;;;18.08;12.13;;;;;;;;;;5135975;27;20076;-84
2021/04/19 12:07:30;;;;;;;20.15;11.70;;;;;;;;;;5118811;27;20087;-84
2021/04/19 12:09:56;;;;;;;15.95;11.40;;;;;;;;;;5135836;27;20032;-84
2021/04/19 12:12:22;;;;;;;20.95;13.23;;;;;;;;;;5136888;27;20084;-84
2021/04/19 12:14:48;;;;;;;20.40;12.60;;;;;;;;;;5135507;27;20066;-84
2021/04/19 12:17:14;;;;;;;20.38;13.02;;;;;;;;;;5118689;27;20039;-84
2021/04/19 12:19:40;;;;;;;19.38;12.55;;;;;;;;;;5135556;27;20035;-84
2021/04/19 12:22:07;;;;;;;21.20;12.43;;;;;;;;;;5135806;27;20031;-84
2021/04/19 12:24:33;;;;;;;18.48;11.82;;;;;;;;;;5135553;27;20070;-84
2021/04/19 12:26:59;;;;;;;17.52;12.55;;;;;;;;;;5118299;27;20088;-84
2021/04/19 12:29:25;;;;;;;19.08;12.52;;;;;;;;;;5135501;27;20067;-84
2021/04/19 12:31:51;;;;;;;18.58;12.18;;;;;;;;;;5135440;27;20087;-84
2021/04/19 12:34:17;;;;;;;18.10;12.05;;;;;;;;;;5135155;27;20055;-84
2021/04/19 12:36:43;;;;;;;18.40;11.63;;;;;;;;;;5136394;27;20504;-84
2021/04/19 12:39:09;;;;;;;18.20;11.90;;;;;;;;;;5135492;27;20504;-84
2021/04/19 12:41:36;;;;;;;17.30;11.55;;;;;;;;;;5135246;27;20039;-84
2021/04/19 12:44:02;;;;;;;19.85;11.68;;;;;;;;;;5135181;27;20043;-84
2021/04/19 12:46:28;;;;;;;17.13;11.70;;;;;;;;;;5136220;27;20482;-84
2021/04/19 12:48:55;;;;;;;20.40;12.52;;;;;;;;;;5136276;27;20114;-84
2021/04/19 12:51:22;;;;;;;18.20;11.27;;;;;;;;;;5136205;27;20045;-84
2021/04/19 12:53:48;;;;;;;18.88;11.63;;;;;;;;;;5134947;27;20063;-84
2021/04/19 12:56:14;;;;;;;16.42;11.30;;;;;;;;;;5134645;27;20042;-84
2021/04/19 12:58:41;;;;;;;17.13;11.40;;;;;;;;;;5134927;27;20043;-84
2021/04/19 13:01:08;;;;;;;17.75;11.32;;;;;;;;;;5135014;27;20114;-84
2021/04/19 13:03:34;;;;;;;15.75;11.10;;;;;;;;;;5134021;27;20064;-84
2021/04/19 13:06:01;;;;;;;16.45;11.63;;;;;;;;;;5135859;27;20103;-84
2021/04/19 13:08:27;;;;;;;17.88;11.55;;;;;;;;;;5135912;27;20100;-84
2021/04/19 13:10:53;;;;;;;17.90;12.40;;;;;;;;;;5135763;27;20063;-84
2021/04/19 13:13:19;;;;;;;18.85;12.55;;;;;;;;;;5134702;27;20058;-84
2021/04/19 13:15:46;;;;;;;18.30;13.02;;;;;;;;;;5134526;27;20470;-84
2021/04/19 13:18:11;;;;;;;17.63;12.20;;;;;;;;;;5134618;27;20039;-84
2021/04/19 13:20:38;;;;;;;16.90;11.93;;;;;;;;;;5134629;27;20087;-84
2021/04/19 13:23:04;;;;;;;15.82;10.52;;;;;;;;;;5117422;27;20039;-84
2021/04/19 13:25:30;;;;;;;19.05;12.85;;;;;;;;;;5135521;27;20042;-84
2021/04/19 13:27:56;;;;;;;14.60;10.55;;;;;;;;;;5134257;27;20032;-85
2021/04/19 13:30:23;;;;;;;16.55;11.18;;;;;;;;;;5117406;27;20047;-84
2021/04/19 13:32:49;;;;;;;18.33;11.45;;;;;;;;;;5134266;27;20071;-84
2021/04/19 13:35:15;;;;;;;17.33;11.18;;;;;;;;;;5133935;27;20047;-84
2021/04/19 13:37:41;;;;;;;15.57;10.88;;;;;;;;;;5134162;27;20064;-84
2021/04/19 13:40:08;;;;;;;17.63;11.70;;;;;;;;;;5133995;27;20116;-84
2021/04/19 13:42:34;;;;;;;17.63;11.60;;;;;;;;;;5134032;27;20047;-84
2021/04/19 13:45:00;;;;;;;16.33;11.27;;;;;;;;;;5134004;27;20071;-84
2021/04/19 13:47:26;;;;;;;17.23;11.98;;;;;;;;;;5133888;27;20050;-84
2021/04/19 13:49:52;;;;;;;17.77;11.85;;;;;;;;;;5116871;27;20035;-84
2021/04/19 13:52:18;;;;;;;18.98;12.43;;;;;;;;;;5135058;27;20474;-84
2021/04/19 13:54:45;;;;;;;17.95;12.23;;;;;;;;;;5133648;27;20035;-84
2021/04/19 13:57:11;;;;;;;18.20;12.75;;;;;;;;;;5116877;27;20039;-84
2021/04/19 13:59:37;;;;;;;18.08;12.48;;;;;;;;;;5133712;27;20436;-84
2021/04/19 14:02:03;;;;;;;16.73;12.50;;;;;;;;;;5133637;27;20095;-84
2021/04/19 14:04:29;;;;;;;18.20;12.65;;;;;;;;;;5116615;27;20035;-84
2021/04/19 14:06:57;;;;;;;17.73;12.18;;;;;;;;;;5133475;27;20099;-84
2021/04/19 14:09:23;;;;;;;15.20;12.10;;;;;;;;;;5133422;27;20041;-84
2021/04/19 14:11:49;;;;;;;20.52;12.57;;;;;;;;;;5133473;27;20070;-84
2021/04/19 14:14:15;;;;;;;17.70;11.85;;;;;;;;;;5132678;27;20478;-84
2021/04/19 14:16:41;;;;;;;16.35;11.80;;;;;;;;;;5133154;27;20445;-84
2021/04/19 14:19:07;;;;;;;17.30;12.38;;;;;;;;;;5133347;27;20474;-83
2021/04/19 14:21:34;;;;;;;17.33;11.52;;;;;;;;;;5127924;27;20062;-83